createdAt,value
2023-01-11T00:01:11.832Z,71.22
2023-01-11T00:03:40.159Z,71.00
2023-01-11T00:06:09.502Z,71.17
2023-01-11T00:08:37.664Z,71.09
2023-01-11T00:11:12.987Z,70.88
2023-01-11T00:13:41.774Z,70.87
2023-01-11T00:16:10.108Z,70.93
2023-01-11T00:18:39.142Z,71.34
2023-01-11T00:21:08.662Z,71.34
2023-01-11T00:23:37.340Z,71.01
2023-01-11T00:26:07.404Z,71.07
2023-01-11T00:28:35.489Z,71.12
2023-01-11T00:31:04.370Z,70.74
2023-01-11T00:33:32.519Z,70.79
2023-01-11T00:36:01.155Z,70.55
2023-01-11T00:38:44.187Z,69.80
2023-01-11T00:41:34.802Z,69.83
2023-01-11T00:44:23.526Z,70.16
2023-01-11T00:47:10.389Z,70.66
2023-01-11T00:49:39.255Z,70.04
2023-01-11T00:52:09.487Z,70.00
2023-01-11T00:54:41.999Z,70.02
2023-01-11T00:57:10.430Z,70.22
2023-01-11T00:59:41.491Z,71.00
2023-01-11T01:02:11.639Z,70.62
2023-01-11T01:04:40.502Z,70.48
2023-01-11T01:07:08.899Z,70.88
2023-01-11T01:09:37.307Z,70.92
2023-01-11T01:12:07.266Z,70.41
2023-01-11T01:14:36.103Z,70.02
2023-01-11T01:17:09.054Z,69.63
2023-01-11T01:19:38.920Z,69.69
2023-01-11T01:22:08.291Z,69.29
2023-01-11T01:24:36.791Z,69.03
2023-01-11T01:27:04.959Z,68.59
2023-01-11T01:29:33.034Z,68.57
2023-01-11T01:32:01.205Z,68.75
2023-01-11T01:34:29.292Z,68.59
2023-01-11T01:36:57.590Z,68.84
2023-01-11T01:39:25.724Z,69.64
2023-01-11T01:41:53.979Z,69.89
2023-01-11T01:44:56.904Z,70.63
2023-01-11T01:47:40.021Z,70.44
2023-01-11T01:50:23.248Z,70.45
2023-01-11T01:52:55.137Z,69.83
2023-01-11T01:55:30.673Z,69.76
2023-01-11T01:57:59.850Z,69.07
2023-01-11T02:00:28.323Z,68.75
2023-01-11T02:02:58.953Z,68.96
2023-01-11T02:05:28.366Z,69.13
2023-01-11T02:07:59.828Z,69.31
2023-01-11T02:10:29.217Z,69.42
2023-01-11T02:13:09.143Z,69.13
2023-01-11T02:15:37.931Z,69.14
2023-01-11T02:18:12.000Z,69.36
2023-01-11T02:20:53.324Z,69.45
2023-01-11T02:23:27.405Z,68.74
2023-01-11T02:26:10.663Z,68.60
2023-01-11T02:29:00.732Z,68.13
2023-01-11T02:31:39.097Z,68.67
2023-01-11T02:34:30.494Z,69.02
2023-01-11T02:37:19.778Z,69.02
2023-01-11T02:40:18.372Z,69.13
2023-01-11T02:43:11.020Z,69.60
2023-01-11T02:45:50.440Z,70.06
2023-01-11T02:49:14.032Z,70.27
2023-01-11T02:51:55.772Z,70.87
2023-01-11T02:54:25.075Z,71.13
2023-01-11T02:56:56.120Z,70.23
2023-01-11T02:59:31.254Z,71.05
2023-01-11T03:01:59.817Z,70.45
2023-01-11T03:04:36.995Z,70.28
2023-01-11T03:07:20.043Z,70.17
2023-01-11T03:10:13.124Z,69.27
2023-01-11T03:12:54.948Z,69.39
2023-01-11T03:15:26.189Z,69.42
2023-01-11T03:18:30.989Z,69.43
2023-01-11T03:21:22.617Z,69.35
2023-01-11T03:24:36.924Z,68.52
2023-01-11T03:27:20.578Z,68.05
2023-01-11T03:29:58.720Z,68.10
2023-01-11T03:32:36.989Z,67.71
2023-01-11T03:35:37.944Z,67.62
2023-01-11T03:38:13.100Z,67.98
2023-01-11T03:40:46.696Z,68.29
2023-01-11T03:43:18.514Z,69.08
2023-01-11T03:46:06.111Z,69.94
2023-01-11T03:48:57.714Z,70.24
2023-01-11T03:51:29.440Z,70.68
2023-01-11T03:54:03.780Z,70.88
2023-01-11T03:57:02.858Z,70.83
2023-01-11T03:59:31.852Z,70.55
2023-01-11T04:02:00.938Z,70.41
2023-01-11T04:04:29.301Z,70.56
2023-01-11T04:06:57.840Z,70.20
2023-01-11T04:09:25.869Z,70.50
2023-01-11T04:11:53.909Z,70.23
2023-01-11T04:14:22.083Z,69.74
2023-01-11T04:16:50.276Z,71.29
2023-01-11T04:19:18.347Z,70.98
2023-01-11T04:21:46.601Z,71.00
2023-01-11T04:24:14.708Z,71.78
2023-01-11T04:26:42.884Z,70.83
2023-01-11T04:29:11.274Z,69.65
2023-01-11T04:31:39.507Z,69.60
2023-01-11T04:34:07.641Z,69.00
2023-01-11T04:36:36.073Z,68.73
2023-01-11T04:39:05.103Z,68.98
2023-01-11T04:41:51.890Z,68.71
2023-01-11T04:44:20.463Z,68.49
2023-01-11T04:46:48.895Z,69.79
2023-01-11T04:49:17.025Z,71.14
2023-01-11T04:51:45.401Z,71.35
2023-01-11T04:54:13.476Z,71.06
2023-01-11T04:56:41.627Z,70.98
2023-01-11T04:59:09.977Z,70.81
2023-01-11T05:01:38.398Z,70.75
2023-01-11T05:04:06.535Z,71.36
2023-01-11T05:06:35.161Z,70.92
2023-01-11T05:09:03.511Z,70.94
2023-01-11T05:11:33.792Z,70.60
2023-01-11T05:14:01.996Z,70.88
2023-01-11T05:16:30.133Z,71.07
2023-01-11T05:19:00.406Z,70.67
2023-01-11T05:21:34.463Z,69.98
2023-01-11T05:24:04.963Z,71.22
2023-01-11T05:26:36.154Z,71.90
2023-01-11T05:29:10.857Z,70.87
2023-01-11T05:31:41.085Z,71.65
2023-01-11T05:34:13.128Z,72.02
2023-01-11T05:36:42.608Z,72.81
2023-01-11T05:39:14.840Z,73.10
2023-01-11T05:41:42.969Z,72.30
2023-01-11T05:44:31.194Z,72.32
2023-01-11T05:46:59.700Z,73.30
2023-01-11T05:49:27.741Z,73.52
2023-01-11T05:51:55.929Z,73.46
2023-01-11T05:54:24.040Z,73.66
2023-01-11T05:56:52.144Z,73.50
2023-01-11T05:59:20.566Z,73.43
2023-01-11T06:01:48.683Z,74.60
2023-01-11T06:04:16.844Z,74.25
2023-01-11T06:06:45.166Z,72.89
2023-01-11T06:09:13.513Z,73.85
2023-01-11T06:11:41.651Z,73.34
2023-01-11T06:14:09.767Z,72.87
2023-01-11T06:16:37.734Z,72.78
2023-01-11T06:19:06.009Z,72.39
2023-01-11T06:21:35.839Z,72.02
2023-01-11T06:24:03.980Z,71.57
2023-01-11T06:26:32.505Z,71.33
2023-01-11T06:29:00.708Z,71.15
2023-01-11T06:31:29.027Z,71.93
2023-01-11T06:33:57.212Z,73.08
2023-01-11T06:36:25.376Z,73.02
2023-01-11T06:38:53.682Z,73.70
2023-01-11T06:41:22.023Z,74.80
2023-01-11T06:43:50.710Z,75.33
2023-01-11T06:46:19.523Z,75.18
2023-01-11T06:48:48.491Z,75.20
2023-01-11T06:51:16.981Z,75.04
2023-01-11T06:53:46.506Z,74.42
2023-01-11T06:56:19.112Z,74.46
2023-01-11T06:58:47.696Z,74.04
2023-01-11T07:01:18.311Z,72.62
2023-01-11T07:03:47.053Z,72.41
2023-01-11T07:06:15.315Z,73.05
2023-01-11T07:08:43.403Z,73.88
2023-01-11T07:11:11.789Z,73.78
2023-01-11T07:13:40.252Z,73.79
2023-01-11T07:16:08.650Z,73.08
2023-01-11T07:18:37.521Z,72.34
2023-01-11T07:21:06.003Z,71.75
2023-01-11T07:23:34.105Z,71.40
2023-01-11T07:26:02.813Z,70.33
2023-01-11T07:28:31.140Z,69.33
2023-01-11T07:31:00.093Z,68.55
2023-01-11T07:33:28.561Z,68.35
2023-01-11T07:35:58.415Z,68.16
2023-01-11T07:38:29.434Z,66.40
2023-01-11T07:40:57.498Z,65.50
2023-01-11T07:43:25.699Z,66.50
2023-01-11T07:45:56.696Z,66.14
2023-01-11T07:48:26.719Z,65.77
2023-01-11T07:50:55.714Z,65.38
2023-01-11T07:53:26.438Z,65.91
2023-01-11T07:55:55.843Z,66.97
2023-01-11T07:58:24.191Z,67.61
2023-01-11T08:00:52.542Z,67.99
2023-01-11T08:03:21.116Z,67.74
2023-01-11T08:05:51.627Z,66.26
2023-01-11T08:08:20.565Z,65.05
2023-01-11T08:11:09.010Z,66.60
2023-01-11T08:13:55.908Z,66.30
2023-01-11T08:16:24.024Z,67.44
2023-01-11T08:18:53.373Z,68.17
2023-01-11T08:21:21.517Z,66.42
2023-01-11T08:23:49.517Z,68.62
2023-01-11T08:26:18.268Z,69.89
2023-01-11T08:28:46.875Z,70.30
2023-01-11T08:31:15.232Z,68.66
2023-01-11T08:33:43.741Z,67.57
2023-01-11T08:36:13.301Z,66.79
2023-01-11T08:38:41.732Z,66.42
2023-01-11T08:41:14.960Z,66.16
2023-01-11T08:43:43.323Z,66.33
2023-01-11T08:46:11.942Z,65.68
2023-01-11T08:48:40.105Z,64.47
2023-01-11T08:51:08.222Z,64.17
2023-01-11T08:53:37.036Z,64.18
2023-01-11T08:56:05.691Z,64.69
2023-01-11T08:58:33.724Z,67.15
2023-01-11T09:01:04.031Z,67.79
2023-01-11T09:03:32.060Z,67.55
2023-01-11T09:06:00.116Z,66.29
2023-01-11T09:08:29.812Z,66.36
2023-01-11T09:11:00.023Z,67.12
2023-01-11T09:13:28.295Z,67.34
2023-01-11T09:15:58.011Z,67.65
2023-01-11T09:18:27.127Z,68.55
2023-01-11T09:20:55.611Z,68.34
2023-01-11T09:23:24.393Z,69.09
2023-01-11T09:25:52.431Z,69.28
2023-01-11T09:28:20.566Z,67.69
2023-01-11T09:30:48.621Z,66.94
2023-01-11T09:33:16.785Z,66.01
2023-01-11T09:35:46.718Z,65.76
2023-01-11T09:38:15.263Z,65.31
2023-01-11T09:41:23.311Z,65.53
2023-01-11T09:44:14.600Z,66.83
2023-01-11T09:46:48.352Z,68.70
2023-01-11T09:49:24.893Z,68.36
2023-01-11T09:52:09.839Z,67.83
2023-01-11T09:54:37.984Z,66.96
2023-01-11T09:57:22.677Z,68.63
2023-01-11T10:00:05.111Z,70.57
2023-01-11T10:03:04.203Z,71.29
2023-01-11T10:06:01.335Z,71.02
2023-01-11T10:18:30.860Z,66.45
2023-01-11T10:18:37.595Z,65.01
2023-01-11T10:21:13.424Z,63.76
2023-01-11T10:24:01.378Z,62.28
2023-01-11T10:26:40.114Z,61.66
2023-01-11T10:29:38.982Z,61.33
2023-01-11T10:32:43.555Z,61.24
2023-01-11T10:36:06.103Z,60.31
2023-01-11T10:39:08.127Z,59.62
2023-01-11T10:41:49.298Z,58.22
2023-01-11T10:44:32.825Z,57.71
2023-01-11T10:47:03.842Z,56.14
2023-01-11T10:49:41.175Z,55.93
2023-01-11T10:52:52.161Z,55.21
2023-01-11T10:55:35.322Z,54.85
2023-01-11T10:58:22.283Z,54.71
2023-01-11T11:01:08.741Z,54.82
2023-01-11T11:04:05.713Z,55.14
2023-01-11T11:06:50.953Z,55.22
2023-01-11T11:09:36.595Z,55.42
2023-01-11T11:12:16.301Z,55.95
2023-01-11T11:14:53.310Z,56.29
2023-01-11T11:17:37.019Z,56.06
2023-01-11T11:20:23.414Z,56.54
2023-01-11T11:22:56.923Z,56.03
2023-01-11T11:25:37.696Z,56.87
2023-01-11T11:28:27.666Z,56.97
2023-01-11T11:30:59.095Z,56.72
2023-01-11T11:33:35.012Z,55.87
2023-01-11T11:36:07.545Z,55.90
2023-01-11T11:38:41.991Z,56.28
2023-01-11T11:41:17.513Z,56.13
2023-01-11T11:43:47.948Z,55.30
2023-01-11T11:46:20.371Z,54.67
2023-01-11T11:49:12.249Z,54.75
2023-01-11T11:51:43.037Z,54.62
2023-01-11T11:54:19.024Z,54.31
2023-01-11T11:56:47.709Z,54.19
2023-01-11T11:59:19.623Z,53.52
2023-01-11T12:01:56.260Z,53.32
2023-01-11T12:04:33.173Z,52.76
2023-01-11T12:07:11.939Z,52.88
2023-01-11T12:10:04.949Z,51.96
2023-01-11T12:12:34.449Z,51.74
2023-01-11T12:15:14.835Z,51.48
2023-01-11T12:17:43.572Z,51.75
2023-01-11T12:20:23.922Z,52.09
2023-01-11T12:23:12.766Z,52.48
2023-01-11T12:26:02.235Z,52.16
2023-01-11T12:28:48.841Z,52.55
2023-01-11T12:31:23.686Z,53.04
2023-01-11T12:34:11.013Z,53.04
2023-01-11T12:37:07.311Z,53.40
2023-01-11T12:40:04.994Z,54.29
2023-01-11T12:43:19.571Z,55.20
2023-01-11T12:46:15.014Z,56.11
2023-01-11T12:49:16.005Z,56.97
2023-01-11T12:51:47.208Z,57.34
2023-01-11T12:54:39.596Z,56.49
2023-01-11T12:57:13.509Z,55.77
2023-01-11T13:00:08.943Z,54.83
2023-01-11T13:02:57.372Z,54.44
2023-01-11T13:05:33.829Z,54.64
2023-01-11T13:08:04.411Z,55.20
2023-01-11T13:10:55.762Z,56.06
2023-01-11T13:13:34.026Z,55.02
2023-01-11T13:16:07.300Z,55.05
2023-01-11T13:18:59.275Z,56.82
2023-01-11T13:21:43.407Z,56.82
2023-01-11T13:24:20.122Z,56.17
2023-01-11T13:26:50.779Z,55.63
2023-01-11T13:29:33.781Z,55.56
2023-01-11T13:32:11.715Z,55.85
2023-01-11T13:34:48.564Z,57.50
2023-01-11T13:37:28.208Z,58.49
2023-01-11T13:40:03.796Z,58.91
2023-01-11T13:42:38.126Z,59.01
2023-01-11T13:45:35.314Z,58.83
2023-01-11T13:48:12.811Z,58.70
2023-01-11T13:50:54.497Z,59.24
2023-01-11T13:53:28.553Z,59.05
2023-01-11T13:56:06.489Z,59.25
2023-01-11T13:59:02.947Z,58.98
2023-01-11T14:01:57.155Z,59.02
2023-01-11T14:04:40.421Z,59.28
2023-01-11T14:07:28.187Z,59.06
2023-01-11T14:10:26.476Z,58.55
2023-01-11T14:13:06.529Z,58.13
2023-01-11T14:15:41.553Z,58.55
2023-01-11T14:18:28.461Z,58.36
2023-01-11T14:20:59.357Z,58.57
2023-01-11T14:23:46.431Z,58.29
2023-01-11T14:26:23.366Z,57.71
2023-01-11T14:28:59.349Z,57.40
2023-01-11T14:31:39.806Z,57.71
2023-01-11T14:34:26.369Z,58.16
2023-01-11T14:37:13.077Z,57.72
2023-01-11T14:39:50.445Z,57.84
2023-01-11T14:42:54.227Z,58.56
2023-01-11T14:45:45.107Z,59.46
2023-01-11T14:48:57.532Z,60.09
2023-01-11T14:51:37.075Z,60.00
2023-01-11T14:54:12.829Z,60.05
2023-01-11T14:56:43.913Z,60.33
2023-01-11T14:59:25.977Z,61.22
2023-01-11T15:02:03.578Z,61.84
2023-01-11T15:04:59.051Z,62.63
2023-01-11T15:07:29.905Z,62.39
2023-01-11T15:10:00.239Z,62.36
2023-01-11T15:12:41.230Z,62.49
2023-01-11T15:15:20.023Z,62.18
2023-01-11T15:18:15.949Z,62.32
2023-01-11T15:21:17.167Z,63.98
2023-01-11T15:23:57.992Z,64.15
2023-01-11T15:26:27.533Z,63.99
2023-01-11T15:28:57.828Z,63.48
2023-01-11T15:31:49.756Z,63.80
2023-01-11T15:34:27.031Z,63.68
2023-01-11T15:37:05.040Z,63.20
2023-01-11T15:39:33.177Z,63.71
2023-01-11T15:42:16.313Z,63.87
2023-01-11T15:45:03.219Z,63.12
2023-01-11T15:47:53.367Z,62.52
2023-01-11T15:50:40.431Z,62.27
2023-01-11T15:53:30.311Z,62.58
2023-01-11T15:56:28.701Z,64.02
2023-01-11T15:59:31.059Z,63.08
2023-01-11T16:02:08.172Z,63.28
2023-01-11T16:04:44.193Z,64.45
2023-01-11T16:07:40.833Z,64.30
2023-01-11T16:11:17.208Z,64.80
2023-01-11T16:14:06.396Z,64.98
2023-01-11T16:16:41.478Z,64.54
2023-01-11T16:19:24.895Z,64.28
2023-01-11T16:21:56.918Z,64.44
2023-01-11T16:24:29.451Z,64.08
2023-01-11T16:27:01.931Z,64.80
2023-01-11T16:29:37.595Z,64.37
2023-01-11T16:32:18.494Z,63.62
2023-01-11T16:34:50.305Z,63.53
2023-01-11T16:37:30.065Z,63.57
2023-01-11T16:40:05.538Z,63.39
2023-01-11T16:42:39.834Z,63.28
2023-01-11T16:45:15.386Z,62.90
2023-01-11T16:48:01.435Z,62.68
2023-01-11T16:50:29.860Z,63.51
2023-01-11T16:53:04.206Z,63.33
2023-01-11T16:55:52.613Z,63.02
2023-01-11T16:58:29.607Z,62.90
2023-01-11T17:00:57.809Z,63.56
2023-01-11T17:03:29.853Z,63.30
2023-01-11T17:06:22.114Z,63.29
2023-01-11T17:08:56.563Z,62.84
2023-01-11T17:11:45.500Z,61.94
2023-01-11T17:14:31.859Z,62.40
2023-01-11T17:17:03.744Z,62.46
2023-01-11T17:19:35.606Z,61.89
2023-01-11T17:22:15.676Z,62.01
2023-01-11T17:24:59.352Z,63.07
2023-01-11T17:27:35.861Z,63.12
2023-01-11T17:30:05.668Z,63.55
2023-01-11T17:32:41.184Z,63.51
2023-01-11T17:35:22.275Z,63.58
2023-01-11T17:37:57.904Z,63.33
2023-01-11T17:40:32.950Z,63.30
2023-01-11T17:43:41.250Z,62.93
2023-01-11T17:46:16.926Z,63.12
2023-01-11T17:48:57.083Z,62.98
2023-01-11T17:51:34.367Z,63.03
2023-01-11T17:54:02.513Z,62.70
2023-01-11T17:56:38.401Z,62.36
2023-01-11T17:59:18.784Z,62.35
2023-01-11T18:01:59.714Z,61.40
2023-01-11T18:04:29.126Z,60.93
2023-01-11T18:07:19.126Z,61.52
2023-01-11T18:09:50.237Z,61.53
2023-01-11T18:12:22.661Z,61.47
2023-01-11T18:14:53.048Z,60.63
2023-01-11T18:17:32.966Z,58.79
2023-01-11T18:20:05.460Z,61.10
2023-01-11T18:22:37.411Z,61.15
2023-01-11T18:25:17.488Z,60.56
2023-01-11T18:27:47.110Z,60.93
2023-01-11T18:30:30.494Z,60.75
2023-01-11T18:33:02.263Z,62.52
2023-01-11T18:35:31.037Z,62.91
2023-01-11T18:37:59.047Z,64.09
2023-01-11T18:40:27.382Z,64.14
2023-01-11T18:42:55.972Z,63.88
2023-01-11T18:45:25.160Z,63.25
2023-01-11T18:47:53.466Z,63.62
2023-01-11T18:50:21.814Z,63.44
2023-01-11T18:52:50.051Z,63.68
2023-01-11T18:55:18.117Z,64.05
2023-01-11T18:57:47.527Z,63.35
2023-01-11T19:00:16.902Z,63.17
2023-01-11T19:02:44.908Z,63.32
2023-01-11T19:05:18.594Z,64.50
2023-01-11T19:07:47.275Z,65.13
2023-01-11T19:10:18.489Z,64.74
2023-01-11T19:12:47.435Z,63.40
2023-01-11T19:15:16.310Z,62.93
2023-01-11T19:17:44.618Z,62.40
2023-01-11T19:20:14.171Z,62.97
2023-01-11T19:22:42.598Z,62.22
2023-01-11T19:25:11.143Z,61.57
2023-01-11T19:27:39.612Z,61.19
2023-01-11T19:30:08.922Z,62.29
2023-01-11T19:32:37.132Z,63.53
2023-01-11T19:35:06.896Z,65.06
2023-01-11T19:37:37.685Z,63.64
2023-01-11T19:40:06.739Z,63.60
2023-01-11T19:42:34.840Z,62.31
2023-01-11T19:45:04.051Z,62.51
2023-01-11T19:47:32.419Z,63.56
2023-01-11T19:50:01.235Z,64.23
2023-01-11T19:52:29.684Z,64.98
2023-01-11T19:54:57.998Z,64.74
2023-01-11T19:57:27.573Z,65.19
2023-01-11T19:59:55.560Z,64.08
2023-01-11T20:02:24.683Z,64.31
2023-01-11T20:04:53.210Z,63.74
2023-01-11T20:07:21.330Z,63.13
2023-01-11T20:09:49.475Z,62.97
2023-01-11T20:12:17.651Z,62.61
2023-01-11T20:14:46.430Z,62.96
2023-01-11T20:17:19.294Z,63.08
2023-01-11T20:19:54.855Z,62.70
2023-01-11T20:22:26.209Z,62.06
2023-01-11T20:24:56.121Z,61.81
2023-01-11T20:27:24.103Z,61.09
2023-01-11T20:29:52.239Z,61.08
2023-01-11T20:32:39.910Z,61.03
2023-01-11T20:35:10.114Z,61.44
2023-01-11T20:37:38.365Z,61.12
2023-01-11T20:40:07.222Z,61.25
2023-01-11T20:42:38.213Z,61.37
2023-01-11T20:45:06.821Z,62.20
2023-01-11T20:47:34.929Z,62.56
2023-01-11T20:50:03.010Z,62.06
2023-01-11T20:52:31.267Z,62.48
2023-01-11T20:54:59.367Z,63.03
2023-01-11T20:57:29.509Z,63.40
2023-01-11T20:59:57.961Z,63.05
2023-01-11T21:02:26.133Z,62.98
2023-01-11T21:04:54.815Z,63.58
2023-01-11T21:07:23.066Z,63.35
2023-01-11T21:09:51.275Z,63.58
2023-01-11T21:12:20.484Z,66.76
2023-01-11T21:14:48.852Z,67.35
2023-01-11T21:17:17.852Z,67.84
2023-01-11T21:19:45.852Z,67.65
2023-01-11T21:22:13.974Z,66.99
2023-01-11T21:24:42.146Z,66.91
2023-01-11T21:27:10.451Z,66.71
2023-01-11T21:29:38.717Z,66.78
2023-01-11T21:32:06.868Z,66.75
2023-01-11T21:34:34.938Z,67.48
2023-01-11T21:37:02.980Z,65.29
2023-01-11T21:39:31.075Z,65.11
2023-01-11T21:41:59.901Z,66.23
2023-01-11T21:44:33.790Z,64.99
2023-01-11T21:47:04.533Z,63.98
2023-01-11T21:49:33.539Z,64.39
2023-01-11T21:52:01.654Z,64.64
2023-01-11T21:54:29.745Z,65.99
2023-01-11T21:56:58.031Z,65.17
2023-01-11T21:59:26.264Z,64.42
2023-01-11T22:01:54.681Z,66.75
2023-01-11T22:04:23.046Z,67.29
2023-01-11T22:06:54.101Z,66.99
2023-01-11T22:09:25.187Z,68.06
2023-01-11T22:11:53.712Z,66.83
2023-01-11T22:14:21.773Z,65.76
2023-01-11T22:16:50.577Z,64.36
2023-01-11T22:19:19.058Z,63.93
2023-01-11T22:21:47.540Z,63.76
2023-01-11T22:24:16.114Z,64.24
2023-01-11T22:26:44.188Z,64.42
2023-01-11T22:29:12.634Z,64.03
2023-01-11T22:31:43.855Z,63.12
2023-01-11T22:34:14.045Z,62.77
2023-01-11T22:36:43.179Z,62.33
2023-01-11T22:39:12.976Z,63.71
2023-01-11T22:41:41.177Z,65.41
2023-01-11T22:44:10.162Z,66.31
2023-01-11T22:46:38.823Z,67.79
2023-01-11T22:49:08.079Z,66.99
2023-01-11T22:51:36.283Z,66.64
2023-01-11T22:54:04.819Z,65.75
2023-01-11T22:56:33.925Z,65.46
2023-01-11T22:59:02.675Z,67.57
2023-01-11T23:01:34.268Z,67.87
2023-01-11T23:04:03.153Z,67.30
2023-01-11T23:06:37.376Z,67.27
2023-01-11T23:09:08.658Z,65.76
2023-01-11T23:11:57.283Z,66.72
2023-01-11T23:14:30.555Z,66.77
2023-01-11T23:17:04.572Z,64.98
2023-01-11T23:19:33.850Z,64.16
2023-01-11T23:22:02.655Z,65.16
2023-01-11T23:24:31.244Z,64.99
2023-01-11T23:26:59.668Z,64.68
2023-01-11T23:29:27.925Z,67.09
2023-01-11T23:31:56.134Z,69.24
2023-01-11T23:34:24.438Z,68.48
2023-01-11T23:36:52.607Z,66.49
2023-01-11T23:39:20.895Z,65.56
2023-01-11T23:42:07.612Z,65.33
2023-01-11T23:44:35.769Z,65.11
2023-01-11T23:47:22.192Z,64.83
2023-01-11T23:49:55.453Z,64.24
2023-01-11T23:52:26.054Z,64.12
2023-01-11T23:54:55.081Z,64.11
2023-01-11T23:57:25.011Z,64.14
2023-01-11T23:59:53.276Z,65.50
